Time;durP1;ratioP1;P1;durP2;ratioP2;P2;SDS_P1;SDS_P2;PMS_P1;PMS_P2;Temp;Humidity;BMP_temperature;BMP_pressure;BME280_temperature;BME280_humidity;BME280_pressure;Samples;Min_cycle;Max_cycle;Signal;HPM_P1;HPM_P2
2023/05/20 00:00:24;;;;;;;10.13;4.70;;;13.60;99.90;;;;;;5032703;28;20071;-80
2023/05/20 00:02:50;;;;;;;12.27;4.78;;;13.50;99.90;;;;;;5029894;28;20045;-80
2023/05/20 00:05:15;;;;;;;10.57;4.32;;;13.60;99.90;;;;;;5025177;28;20125;-79
2023/05/20 00:07:41;;;;;;;8.07;4.35;;;13.60;99.90;;;;;;5027767;28;20053;-80
2023/05/20 00:10:07;;;;;;;11.93;4.90;;;13.50;99.90;;;;;;5033408;28;20499;-80
2023/05/20 00:12:33;;;;;;;7.65;4.35;;;13.60;99.90;;;;;;5024991;28;20052;-79
2023/05/20 00:15:00;;;;;;;9.23;4.40;;;13.50;99.90;;;;;;5024127;28;20093;-80
2023/05/20 00:17:27;;;;;;;13.03;4.77;;;13.50;99.90;;;;;;5020401;28;20071;-80
2023/05/20 00:19:53;;;;;;;8.38;4.90;;;13.50;99.90;;;;;;5017358;28;20089;-80
2023/05/20 00:22:19;;;;;;;12.88;5.30;;;13.50;99.90;;;;;;5025637;28;20063;-80
2023/05/20 00:24:45;;;;;;;9.55;4.70;;;13.50;99.90;;;;;;5028098;28;20049;-80
2023/05/20 00:27:10;;;;;;;11.63;5.30;;;13.50;99.90;;;;;;5022638;28;20147;-80
2023/05/20 00:29:36;;;;;;;10.07;4.93;;;13.40;99.90;;;;;;5032386;28;20184;-80
2023/05/20 00:32:01;;;;;;;10.18;4.60;;;13.40;99.90;;;;;;5026393;28;20061;-80
2023/05/20 00:34:27;;;;;;;10.50;4.30;;;13.40;99.90;;;;;;5021220;28;20114;-80
2023/05/20 00:36:53;;;;;;;11.35;5.13;;;13.40;99.90;;;;;;5025018;28;20049;-80
2023/05/20 00:39:18;;;;;;;8.80;4.82;;;13.40;99.90;;;;;;5031120;28;20103;-80
2023/05/20 00:41:44;;;;;;;10.23;5.22;;;13.50;99.90;;;;;;5022865;28;20210;-80
2023/05/20 00:44:10;;;;;;;11.25;4.43;;;13.40;99.90;;;;;;5025411;28;20041;-79
2023/05/20 00:46:36;;;;;;;8.77;4.68;;;13.40;99.90;;;;;;5030631;28;20083;-79
2023/05/20 00:49:01;;;;;;;8.43;4.85;;;13.40;99.90;;;;;;5017750;28;20464;-80
2023/05/20 00:51:27;;;;;;;10.20;4.78;;;13.40;99.90;;;;;;5030379;28;20056;-80
2023/05/20 00:53:55;;;;;;;10.38;4.68;;;13.40;99.90;;;;;;5024635;28;20044;-79
2023/05/20 00:56:21;;;;;;;11.45;5.10;;;13.40;99.90;;;;;;5032965;28;20060;-80
2023/05/20 00:58:48;;;;;;;9.70;4.70;;;13.40;99.90;;;;;;5029865;28;20056;-80
2023/05/20 01:01:13;;;;;;;10.07;5.00;;;13.40;99.90;;;;;;5025745;28;20294;-80
2023/05/20 01:03:39;;;;;;;8.55;4.90;;;13.40;99.90;;;;;;5033129;28;20404;-80
2023/05/20 01:06:05;;;;;;;8.77;4.72;;;13.40;99.90;;;;;;5024499;28;20065;-80
2023/05/20 01:08:33;;;;;;;8.77;4.45;;;13.40;99.90;;;;;;5029453;28;20041;-79
2023/05/20 01:11:10;;;;;;;9.15;4.53;;;13.40;99.90;;;;;;5025178;28;20373;-80
2023/05/20 01:13:45;;;;;;;10.32;4.50;;;13.40;99.90;;;;;;5026941;28;20041;-79
2023/05/20 01:16:15;;;;;;;9.48;4.53;;;13.30;99.90;;;;;;5026094;28;20468;-80
2023/05/20 01:18:42;;;;;;;12.02;5.10;;;13.30;99.90;;;;;;5024796;28;20056;-80
2023/05/20 01:21:12;;;;;;;10.38;4.80;;;13.30;99.90;;;;;;5027372;28;20037;-80
2023/05/20 01:23:40;;;;;;;10.27;4.70;;;13.30;99.90;;;;;;5025907;28;20064;-80
2023/05/20 01:26:07;;;;;;;8.77;4.78;;;13.30;99.90;;;;;;5028523;28;20037;-80
2023/05/20 01:28:35;;;;;;;7.60;4.60;;;13.30;99.90;;;;;;5028483;28;20088;-80
2023/05/20 01:31:04;;;;;;;12.90;5.50;;;13.30;99.90;;;;;;5024882;28;20048;-79
2023/05/20 01:33:31;;;;;;;10.82;4.57;;;13.30;99.90;;;;;;5023130;28;20676;-79
2023/05/20 01:35:57;;;;;;;11.52;4.90;;;13.20;99.90;;;;;;5023302;28;20518;-80
2023/05/20 01:38:23;;;;;;;13.57;4.60;;;13.20;99.90;;;;;;5021408;28;21392;-80
2023/05/20 01:40:51;;;;;;;10.63;4.90;;;13.20;99.90;;;;;;5019392;28;20884;-80
2023/05/20 01:43:17;;;;;;;12.25;4.88;;;13.20;99.90;;;;;;5030129;28;20924;-79
2023/05/20 01:45:43;;;;;;;11.33;5.00;;;13.20;99.90;;;;;;5020304;28;20046;-80
2023/05/20 01:48:12;;;;;;;16.73;5.13;;;13.20;99.90;;;;;;5015393;28;20055;-80
2023/05/20 01:50:38;;;;;;;8.63;5.00;;;13.20;99.90;;;;;;5020917;28;20075;-80
2023/05/20 01:53:04;;;;;;;14.55;5.47;;;13.20;99.90;;;;;;5022097;28;20041;-80
2023/05/20 01:55:30;;;;;;;9.57;4.80;;;13.10;99.90;;;;;;5026167;28;20499;-80
2023/05/20 01:57:56;;;;;;;9.20;4.40;;;13.10;99.90;;;;;;5025338;28;20071;-80
2023/05/20 02:00:22;;;;;;;8.70;4.95;;;13.10;99.90;;;;;;5026754;28;20072;-81
2023/05/20 02:02:47;;;;;;;9.90;4.88;;;13.10;99.90;;;;;;5027703;28;20056;-79
2023/05/20 02:05:13;;;;;;;10.27;4.80;;;13.10;99.90;;;;;;5031658;28;20056;-80
2023/05/20 02:07:39;;;;;;;10.18;5.10;;;13.10;99.90;;;;;;5020667;28;20140;-80
2023/05/20 02:10:05;;;;;;;9.07;4.38;;;13.10;99.90;;;;;;5025184;28;20044;-77
2023/05/20 02:12:31;;;;;;;8.38;4.65;;;13.10;99.90;;;;;;5021177;28;20060;-78
2023/05/20 02:14:56;;;;;;;8.65;4.63;;;13.10;99.90;;;;;;5027237;28;20033;-78
2023/05/20 02:17:25;;;;;;;8.82;4.40;;;13.10;99.90;;;;;;5030383;28;20053;-77
2023/05/20 02:19:51;;;;;;;8.15;4.78;;;13.10;99.90;;;;;;5023588;28;20170;-77
2023/05/20 02:22:17;;;;;;;7.72;4.60;;;13.00;99.90;;;;;;5021106;28;20045;-77
2023/05/20 02:24:43;;;;;;;7.72;4.82;;;13.10;99.90;;;;;;5025668;28;20093;-77
2023/05/20 02:27:09;;;;;;;8.13;4.50;;;13.00;99.90;;;;;;5024924;28;20045;-77
2023/05/20 02:29:34;;;;;;;8.82;5.00;;;13.00;99.90;;;;;;5025854;28;20120;-78
2023/05/20 02:32:00;;;;;;;9.95;4.68;;;13.00;99.90;;;;;;5027183;28;20056;-78
2023/05/20 02:34:27;;;;;;;8.65;4.50;;;13.00;99.90;;;;;;5023453;28;20106;-78
2023/05/20 02:36:53;;;;;;;10.07;4.82;;;12.90;99.90;;;;;;5029303;28;20041;-77
2023/05/20 02:39:19;;;;;;;8.90;4.68;;;12.90;99.90;;;;;;5028123;28;20041;-78
2023/05/20 02:41:44;;;;;;;9.93;4.63;;;12.90;99.90;;;;;;5030509;28;20111;-78
2023/05/20 02:44:11;;;;;;;10.23;4.70;;;12.90;99.90;;;;;;5027704;28;20041;-78
2023/05/20 02:46:37;;;;;;;9.27;5.10;;;12.90;99.90;;;;;;5031859;28;20084;-77
2023/05/20 02:49:02;;;;;;;9.93;4.88;;;12.90;99.90;;;;;;5034022;28;20123;-77
2023/05/20 02:51:30;;;;;;;9.70;4.40;;;12.80;99.90;;;;;;5034015;28;20045;-77
2023/05/20 02:53:56;;;;;;;8.07;4.35;;;12.90;99.90;;;;;;5033555;28;20131;-76
2023/05/20 02:56:23;;;;;;;10.85;4.70;;;12.80;99.90;;;;;;5032523;28;20149;-77
2023/05/20 02:58:49;;;;;;;10.13;4.45;;;12.80;99.90;;;;;;5034192;28;20041;-77
2023/05/20 03:01:14;;;;;;;9.27;4.30;;;12.80;99.90;;;;;;5028367;28;20064;-77
2023/05/20 03:03:41;;;;;;;7.85;4.38;;;12.70;99.90;;;;;;5026864;28;20061;-77
2023/05/20 03:06:07;;;;;;;9.57;4.32;;;12.80;99.90;;;;;;5032404;28;20068;-77
2023/05/20 03:08:33;;;;;;;8.07;4.63;;;12.80;99.90;;;;;;5029234;28;20033;-77
2023/05/20 03:10:59;;;;;;;8.18;4.25;;;12.80;99.90;;;;;;5024030;28;20463;-77
2023/05/20 03:13:25;;;;;;;5.65;4.13;;;12.70;99.90;;;;;;5031420;28;20689;-77
2023/05/20 03:15:51;;;;;;;9.02;4.35;;;12.70;99.90;;;;;;5031905;28;20044;-77
2023/05/20 03:18:17;;;;;;;8.75;4.20;;;12.60;99.90;;;;;;5035180;28;20141;-76
2023/05/20 03:20:42;;;;;;;8.20;4.18;;;12.60;99.90;;;;;;5032409;28;20240;-77
2023/05/20 03:23:12;;;;;;;8.25;4.60;;;12.60;99.90;;;;;;5030063;28;20041;-77
2023/05/20 03:25:38;;;;;;;8.20;4.20;;;12.60;99.90;;;;;;5033755;28;20048;-77
2023/05/20 03:28:05;;;;;;;9.13;4.07;;;12.60;99.90;;;;;;5031681;28;20495;-77
2023/05/20 03:30:31;;;;;;;8.65;4.45;;;12.60;99.90;;;;;;5029925;28;20060;-77
2023/05/20 03:32:57;;;;;;;11.93;4.35;;;12.50;99.90;;;;;;5033047;28;20042;-77
2023/05/20 03:35:23;;;;;;;9.45;4.38;;;12.50;99.90;;;;;;5030304;28;20545;-78
2023/05/20 03:37:50;;;;;;;7.45;4.18;;;12.40;99.90;;;;;;5020149;28;20178;-77
2023/05/20 03:40:16;;;;;;;8.93;3.88;;;12.40;99.90;;;;;;5030096;28;20515;-77
2023/05/20 03:42:42;;;;;;;11.50;4.15;;;12.40;99.90;;;;;;5029824;28;20049;-77
2023/05/20 03:45:08;;;;;;;10.60;4.05;;;12.30;99.90;;;;;;5028395;28;20049;-77
2023/05/20 03:47:34;;;;;;;7.85;3.85;;;12.30;99.90;;;;;;5027095;28;20080;-79
2023/05/20 03:50:00;;;;;;;8.13;3.92;;;12.30;99.90;;;;;;5031079;28;20131;-77
2023/05/20 03:52:25;;;;;;;7.20;3.35;;;12.30;99.90;;;;;;5031167;28;20128;-76
2023/05/20 03:54:52;;;;;;;11.00;4.10;;;12.20;99.90;;;;;;5022495;28;20044;-78
2023/05/20 03:57:18;;;;;;;7.40;3.70;;;12.30;99.90;;;;;;5030245;28;20041;-77
2023/05/20 03:59:47;;;;;;;6.60;3.30;;;12.20;99.90;;;;;;5030318;28;20048;-77
2023/05/20 04:02:12;;;;;;;8.70;3.33;;;12.20;99.90;;;;;;5032787;28;20056;-77
2023/05/20 04:04:41;;;;;;;6.93;3.30;;;12.20;99.90;;;;;;5028003;28;20472;-77
2023/05/20 04:07:08;;;;;;;6.57;3.33;;;12.20;99.90;;;;;;5030566;28;20040;-77
2023/05/20 04:09:33;;;;;;;8.93;3.80;;;12.20;99.90;;;;;;5036817;28;20079;-78
2023/05/20 04:11:59;;;;;;;5.30;3.15;;;12.20;99.90;;;;;;5028461;28;20480;-77
2023/05/20 04:14:25;;;;;;;5.78;3.22;;;12.20;99.90;;;;;;5026942;28;20045;-78
2023/05/20 04:16:51;;;;;;;7.57;3.65;;;12.20;99.90;;;;;;5024062;28;20036;-77
2023/05/20 04:19:18;;;;;;;6.28;3.50;;;12.20;99.90;;;;;;5033035;28;20135;-76
2023/05/20 04:21:44;;;;;;;6.57;3.45;;;12.10;99.90;;;;;;5027790;28;20052;-77
2023/05/20 04:24:10;;;;;;;6.90;3.65;;;12.20;99.90;;;;;;5033064;28;20040;-77
2023/05/20 04:26:36;;;;;;;5.40;3.17;;;12.20;99.90;;;;;;5030388;28;20036;-78
2023/05/20 04:29:02;;;;;;;8.60;3.55;;;12.10;99.90;;;;;;5027536;28;20094;-77
2023/05/20 04:31:29;;;;;;;7.40;3.65;;;12.20;99.90;;;;;;5032178;28;20033;-77
2023/05/20 04:33:55;;;;;;;6.25;3.25;;;12.20;99.90;;;;;;5031353;28;20522;-77
2023/05/20 04:36:27;;;;;;;8.07;3.55;;;12.20;99.90;;;;;;5034621;28;20076;-77
2023/05/20 04:38:53;;;;;;;5.30;2.97;;;12.20;99.90;;;;;;5021298;28;20164;-77
2023/05/20 04:41:19;;;;;;;5.33;3.00;;;12.20;99.90;;;;;;5021498;28;20041;-77
2023/05/20 04:43:45;;;;;;;6.90;3.15;;;12.20;99.90;;;;;;5022689;28;20041;-77
2023/05/20 04:46:11;;;;;;;5.97;3.00;;;12.20;99.90;;;;;;5027501;28;20148;-77
2023/05/20 04:48:37;;;;;;;6.88;3.28;;;12.20;99.90;;;;;;5022792;28;20135;-77
2023/05/20 04:51:02;;;;;;;4.75;2.83;;;12.20;99.90;;;;;;5031106;28;20053;-75
2023/05/20 04:53:29;;;;;;;4.90;2.90;;;12.30;99.90;;;;;;5031183;28;20075;-76
2023/05/20 04:55:55;;;;;;;4.80;2.70;;;12.30;99.90;;;;;;5031175;28;20279;-77
2023/05/20 04:58:23;;;;;;;4.57;2.70;;;12.30;99.90;;;;;;5026529;28;20539;-77
2023/05/20 05:00:50;;;;;;;5.50;2.95;;;12.30;99.90;;;;;;5029812;28;20194;-76
2023/05/20 05:03:16;;;;;;;6.07;2.63;;;12.40;99.90;;;;;;5026682;28;20037;-76
2023/05/20 05:05:42;;;;;;;3.88;2.53;;;12.40;99.90;;;;;;5032524;28;20060;-76
2023/05/20 05:08:10;;;;;;;5.35;2.90;;;12.40;99.90;;;;;;5025952;28;20033;-77
2023/05/20 05:10:36;;;;;;;6.07;2.90;;;12.50;99.90;;;;;;5024995;28;21119;-77
2023/05/20 05:13:02;;;;;;;4.18;2.40;;;12.50;99.90;;;;;;5027063;28;20051;-77
2023/05/20 05:15:28;;;;;;;4.53;2.35;;;12.60;99.90;;;;;;5027546;28;20072;-77
2023/05/20 05:17:53;;;;;;;4.18;2.40;;;12.60;99.90;;;;;;5020766;28;20128;-76
2023/05/20 05:20:19;;;;;;;5.18;2.50;;;12.60;99.90;;;;;;5022713;28;20049;-76
2023/05/20 05:22:45;;;;;;;3.90;2.53;;;12.70;99.90;;;;;;5032288;28;20041;-76
2023/05/20 05:25:11;;;;;;;5.35;2.33;;;12.70;99.90;;;;;;5021121;28;21628;-77
2023/05/20 05:27:37;;;;;;;5.53;2.70;;;12.70;99.90;;;;;;5027864;28;20135;-77
2023/05/20 05:30:04;;;;;;;5.43;2.47;;;12.80;99.90;;;;;;5025484;28;20045;-77
2023/05/20 05:32:30;;;;;;;4.80;2.72;;;12.90;99.90;;;;;;5022844;28;20053;-76
2023/05/20 05:34:56;;;;;;;4.90;2.50;;;12.80;99.90;;;;;;5024567;28;20045;-77
2023/05/20 05:37:21;;;;;;;5.95;2.72;;;12.90;99.90;;;;;;5020113;28;20052;-75
2023/05/20 05:39:47;;;;;;;4.88;2.67;;;12.90;99.90;;;;;;5015056;28;20059;-74
2023/05/20 05:42:13;;;;;;;4.22;2.70;;;12.90;99.90;;;;;;5025059;28;20047;-74
2023/05/20 05:44:41;;;;;;;7.00;2.30;;;13.00;99.90;;;;;;5025264;28;20040;-73
2023/05/20 05:47:08;;;;;;;4.85;2.20;;;13.00;99.90;;;;;;5025410;28;20547;-74
2023/05/20 05:49:33;;;;;;;5.70;2.58;;;13.00;99.90;;;;;;5021373;28;20049;-73
2023/05/20 05:51:59;;;;;;;6.00;2.40;;;13.10;99.90;;;;;;5029287;28;20963;-74
2023/05/20 05:54:25;;;;;;;3.45;2.30;;;13.10;99.90;;;;;;5024577;28;20083;-74
2023/05/20 05:56:51;;;;;;;4.55;2.10;;;13.10;99.90;;;;;;5020482;28;20132;-75
2023/05/20 05:59:18;;;;;;;5.43;2.50;;;13.20;99.90;;;;;;5032564;28;20123;-73
2023/05/20 06:01:44;;;;;;;4.50;2.10;;;13.20;99.90;;;;;;5022360;28;20075;-75
2023/05/20 06:04:09;;;;;;;3.88;2.65;;;13.20;99.90;;;;;;5024931;28;20603;-74
2023/05/20 06:06:36;;;;;;;4.32;2.42;;;13.30;99.90;;;;;;5026258;28;20104;-74
2023/05/20 06:09:02;;;;;;;4.57;2.53;;;13.40;99.90;;;;;;5032549;28;20052;-74
2023/05/20 06:11:27;;;;;;;6.05;2.88;;;13.40;99.90;;;;;;5022101;28;20049;-74
2023/05/20 06:13:53;;;;;;;4.75;2.80;;;13.40;99.90;;;;;;5019255;28;20052;-73
2023/05/20 06:16:19;;;;;;;4.30;2.63;;;13.50;99.90;;;;;;5028478;28;20036;-73
2023/05/20 06:18:45;;;;;;;5.28;2.45;;;13.60;99.90;;;;;;5031741;28;20037;-73
2023/05/20 06:21:11;;;;;;;5.00;2.63;;;13.60;99.90;;;;;;5034473;28;20500;-74
2023/05/20 06:23:37;;;;;;;5.47;2.50;;;13.60;99.90;;;;;;5032684;28;20129;-74
2023/05/20 06:26:03;;;;;;;4.78;2.50;;;13.70;99.90;;;;;;5033978;28;20963;-73
2023/05/20 06:28:29;;;;;;;5.35;2.50;;;13.70;99.90;;;;;;5036285;28;20075;-73
2023/05/20 06:30:56;;;;;;;5.07;2.80;;;13.80;99.90;;;;;;5029402;28;20079;-75
2023/05/20 06:33:27;;;;;;;4.05;2.40;;;13.80;99.90;;;;;;5034532;28;20142;-74
2023/05/20 06:35:54;;;;;;;5.32;2.60;;;13.90;99.90;;;;;;5035446;28;20128;-73
2023/05/20 06:38:20;;;;;;;6.38;2.83;;;13.90;99.90;;;;;;5036854;28;20045;-74
2023/05/20 06:40:47;;;;;;;7.22;2.80;;;13.90;99.90;;;;;;5032092;28;20040;-74
2023/05/20 06:43:14;;;;;;;4.68;2.70;;;14.00;99.90;;;;;;5040255;28;20127;-73
2023/05/20 06:45:40;;;;;;;4.68;2.50;;;14.00;99.90;;;;;;5038809;28;20041;-74
2023/05/20 06:48:06;;;;;;;4.70;2.70;;;14.10;99.90;;;;;;5034482;28;20048;-74
2023/05/20 06:50:31;;;;;;;12.25;3.10;;;14.10;99.90;;;;;;5032988;28;20040;-74
2023/05/20 06:52:57;;;;;;;4.65;2.95;;;14.20;99.90;;;;;;5037755;28;20120;-74
2023/05/20 06:55:23;;;;;;;4.22;2.88;;;14.30;99.90;;;;;;5029960;28;21225;-73
2023/05/20 06:57:49;;;;;;;7.72;3.22;;;14.30;99.90;;;;;;5009755;28;20110;-74
2023/05/20 07:00:15;;;;;;;5.40;2.83;;;14.30;99.90;;;;;;5032770;28;20646;-72
2023/05/20 07:02:42;;;;;;;4.20;2.72;;;14.40;99.90;;;;;;5034219;28;20049;-76
2023/05/20 07:05:08;;;;;;;5.57;2.92;;;14.40;99.90;;;;;;5024995;28;20053;-75
2023/05/20 07:07:34;;;;;;;4.53;2.80;;;14.50;99.90;;;;;;5030905;28;20514;-75
2023/05/20 07:09:59;;;;;;;4.50;2.92;;;14.60;99.90;;;;;;5029676;28;20037;-76
2023/05/20 07:12:25;;;;;;;4.32;2.78;;;14.60;99.90;;;;;;5024892;28;20052;-75
2023/05/20 07:14:51;;;;;;;5.45;3.17;;;14.70;99.90;;;;;;5029447;28;20053;-75
2023/05/20 07:17:16;;;;;;;5.80;3.20;;;14.70;99.90;;;;;;5015630;28;20053;-76
2023/05/20 07:19:42;;;;;;;4.90;2.97;;;14.80;99.90;;;;;;5028693;28;20067;-75
2023/05/20 07:22:08;;;;;;;6.72;3.10;;;14.80;99.90;;;;;;5017549;28;20040;-76
2023/05/20 07:24:35;;;;;;;5.15;3.13;;;14.90;99.90;;;;;;5019901;28;20051;-76
2023/05/20 07:27:01;;;;;;;6.43;3.70;;;14.90;99.90;;;;;;5016905;28;20973;-76
2023/05/20 07:29:26;;;;;;;6.05;3.22;;;15.10;99.90;;;;;;5030751;28;20048;-76
2023/05/20 07:31:52;;;;;;;9.90;3.30;;;15.20;99.90;;;;;;5032236;28;20051;-75
2023/05/20 07:34:18;;;;;;;5.97;3.45;;;15.20;99.90;;;;;;5025192;28;20044;-74
2023/05/20 07:36:43;;;;;;;7.47;2.97;;;15.30;99.90;;;;;;5034727;28;20118;-75
2023/05/20 07:39:09;;;;;;;6.97;3.45;;;15.30;99.90;;;;;;5027912;28;20077;-73
2023/05/20 07:41:38;;;;;;;8.02;3.45;;;15.40;99.90;;;;;;5020207;28;20098;-77
2023/05/20 07:44:05;;;;;;;6.07;3.30;;;15.50;99.90;;;;;;5015368;28;20057;-76
2023/05/20 07:46:31;;;;;;;7.80;3.58;;;15.60;99.90;;;;;;5025219;28;20057;-77
2023/05/20 07:48:57;;;;;;;5.95;3.83;;;15.60;99.90;;;;;;5021800;28;20053;-77
2023/05/20 07:51:22;;;;;;;4.15;2.90;;;15.70;99.90;;;;;;5027142;28;20490;-73
2023/05/20 07:53:48;;;;;;;5.45;3.20;;;15.70;99.90;;;;;;5027189;28;21257;-76
2023/05/20 07:56:14;;;;;;;6.38;3.38;;;15.70;99.90;;;;;;5021309;28;20155;-77
2023/05/20 07:58:41;;;;;;;6.85;3.55;;;15.80;99.90;;;;;;5028586;28;20469;-76
2023/05/20 08:01:08;;;;;;;5.95;3.58;;;15.80;99.90;;;;;;5025562;28;20111;-76
2023/05/20 08:03:35;;;;;;;5.25;3.58;;;15.90;99.90;;;;;;5020513;28;20068;-76
2023/05/20 08:06:02;;;;;;;7.18;3.55;;;16.00;99.90;;;;;;5020812;28;20047;-77
2023/05/20 08:08:29;;;;;;;4.13;3.05;;;16.00;99.90;;;;;;5020791;28;20049;-77
2023/05/20 08:10:55;;;;;;;6.20;3.55;;;16.00;99.90;;;;;;5025714;28;20143;-76
2023/05/20 08:13:21;;;;;;;6.68;3.17;;;16.10;99.90;;;;;;5033927;28;20060;-79
2023/05/20 08:15:47;;;;;;;6.43;3.17;;;16.10;99.90;;;;;;5032933;28;21566;-83
2023/05/20 08:18:14;;;;;;;5.90;3.10;;;16.20;99.90;;;;;;5028665;28;20055;-76
2023/05/20 08:20:43;;;;;;;6.22;3.40;;;16.30;99.70;;;;;;5031631;28;20048;-76
2023/05/20 08:23:09;;;;;;;6.25;3.70;;;16.40;99.50;;;;;;5023226;28;20091;-75
2023/05/20 08:25:35;;;;;;;58.88;7.47;;;16.40;99.20;;;;;;5017861;28;20132;-75
2023/05/20 08:28:02;;;;;;;7.30;3.10;;;16.50;99.20;;;;;;5018187;28;20045;-74
2023/05/20 08:30:29;;;;;;;6.40;3.30;;;16.50;98.50;;;;;;5028969;28;20057;-75
2023/05/20 08:32:55;;;;;;;5.15;3.20;;;16.50;98.40;;;;;;5032081;28;20570;-75
2023/05/20 08:35:21;;;;;;;5.60;3.63;;;16.50;98.00;;;;;;5029870;28;20049;-75
2023/05/20 08:37:47;;;;;;;7.03;3.35;;;16.60;98.40;;;;;;5028363;28;20056;-75
2023/05/20 08:40:13;;;;;;;9.18;3.25;;;16.60;98.00;;;;;;5027812;28;20053;-76
2023/05/20 08:42:42;;;;;;;5.10;3.28;;;16.70;97.90;;;;;;5025049;28;20099;-77
2023/05/20 08:45:12;;;;;;;5.38;2.97;;;16.80;98.20;;;;;;5028342;28;20132;-78
2023/05/20 08:47:42;;;;;;;6.00;3.03;;;16.90;97.70;;;;;;5015013;28;20493;-77
2023/05/20 08:50:09;;;;;;;7.80;3.28;;;16.90;97.40;;;;;;5026446;28;20040;-80
2023/05/20 08:52:38;;;;;;;4.43;3.15;;;16.90;97.10;;;;;;5028456;28;20061;-80
2023/05/20 08:55:06;;;;;;;4.30;3.00;;;17.00;96.70;;;;;;5027220;28;20049;-74
2023/05/20 08:57:33;;;;;;;7.07;3.20;;;17.00;96.70;;;;;;5028253;28;20048;-76
2023/05/20 08:59:59;;;;;;;7.15;2.70;;;17.10;96.80;;;;;;5024082;28;20100;-76
2023/05/20 09:02:25;;;;;;;5.03;2.90;;;17.10;96.10;;;;;;5026393;28;20033;-76
2023/05/20 09:04:58;;;;;;;4.80;2.85;;;17.10;95.10;;;;;;5086738;27;20459;-77
2023/05/20 09:07:27;;;;;;;5.05;2.90;;;17.00;95.30;;;;;;5063312;28;20128;-77
2023/05/20 09:09:53;;;;;;;4.05;2.67;;;16.90;95.10;;;;;;5068986;28;20426;-78
2023/05/20 09:12:20;;;;;;;6.93;3.00;;;16.90;95.10;;;;;;5067786;28;20041;-79
2023/05/20 09:14:46;;;;;;;5.05;2.95;;;17.00;95.20;;;;;;5060464;28;20550;-77
2023/05/20 09:17:12;;;;;;;6.72;2.80;;;17.00;95.00;;;;;;5070903;28;20075;-77
2023/05/20 09:19:38;;;;;;;9.75;3.10;;;17.10;95.00;;;;;;5063137;28;20044;-78
2023/05/20 09:22:04;;;;;;;6.45;3.08;;;17.10;94.40;;;;;;5056892;28;20504;-78
2023/05/20 09:24:30;;;;;;;4.63;2.47;;;17.10;94.50;;;;;;5069371;28;20549;-78
2023/05/20 09:26:57;;;;;;;7.00;3.15;;;17.10;94.40;;;;;;5071350;28;20052;-80
2023/05/20 09:29:23;;;;;;;7.47;3.08;;;17.20;94.20;;;;;;5058408;28;20052;-75
2023/05/20 09:31:49;;;;;;;7.00;3.10;;;17.40;94.80;;;;;;5064764;28;20045;-76
2023/05/20 09:34:16;;;;;;;5.70;3.03;;;17.60;94.80;;;;;;5071110;28;20503;-76
2023/05/20 09:36:43;;;;;;;5.30;3.03;;;17.70;94.10;;;;;;5056970;28;20037;-76
2023/05/20 09:39:14;;;;;;;5.03;3.10;;;17.80;94.10;;;;;;5066965;28;20045;-77
2023/05/20 09:42:04;;;;;;;9.02;2.78;;;17.90;93.50;;;;;;5061247;28;20800;-76
2023/05/20 09:44:32;;;;;;;5.93;2.63;;;18.00;93.70;;;;;;5055799;28;20404;-77
2023/05/20 09:46:59;;;;;;;7.53;3.10;;;18.20;93.50;;;;;;5067397;28;20036;-76
2023/05/20 09:49:27;;;;;;;6.72;2.55;;;18.40;93.00;;;;;;5052725;28;20076;-75
2023/05/20 09:51:53;;;;;;;5.70;2.50;;;18.60;93.00;;;;;;5061313;28;20459;-76
2023/05/20 09:54:21;;;;;;;5.82;2.42;;;18.80;91.40;;;;;;5061843;28;20538;-74
2023/05/20 09:56:47;;;;;;;5.03;2.40;;;18.80;90.50;;;;;;5054329;28;20131;-73
2023/05/20 09:59:16;;;;;;;5.53;2.20;;;18.90;90.00;;;;;;5058067;28;20135;-73
2023/05/20 10:01:42;;;;;;;5.65;2.20;;;18.90;88.40;;;;;;5086031;28;20050;-72
2023/05/20 10:04:09;;;;;;;7.28;2.42;;;18.90;86.00;;;;;;5069238;28;20102;-73
2023/05/20 10:06:57;;;;;;;6.38;2.47;;;18.70;83.90;;;;;;5064287;28;20090;-74
2023/05/20 10:09:52;;;;;;;7.25;2.45;;;18.70;84.40;;;;;;5069146;28;20043;-77
2023/05/20 10:12:23;;;;;;;4.72;2.00;;;18.80;85.60;;;;;;5069207;28;20047;-78
2023/05/20 10:15:06;;;;;;;6.70;2.33;;;18.90;85.40;;;;;;5047697;28;20143;-81
2023/05/20 10:17:49;;;;;;;5.13;2.38;;;19.10;85.80;;;;;;5036893;28;20055;-79
2023/05/20 10:20:14;;;;;;;3.55;2.20;;;19.40;85.10;;;;;;5052024;28;20060;-77
2023/05/20 10:22:40;;;;;;;6.15;2.35;;;19.40;82.80;;;;;;5040356;28;20497;-76
2023/05/20 10:25:11;;;;;;;4.95;2.40;;;19.40;82.20;;;;;;5059395;28;20082;-75
2023/05/20 10:27:45;;;;;;;4.18;2.10;;;19.40;80.70;;;;;;5058831;28;20136;-76
2023/05/20 10:30:21;;;;;;;4.75;2.35;;;19.40;80.20;;;;;;5036370;28;20132;-77
2023/05/20 10:32:56;;;;;;;4.13;2.53;;;19.50;81.30;;;;;;5037694;28;20695;-76
2023/05/20 10:35:26;;;;;;;6.05;2.08;;;19.60;81.80;;;;;;5056488;28;20055;-76
2023/05/20 10:37:53;;;;;;;5.93;2.40;;;19.70;80.60;;;;;;5043358;28;20563;-77
2023/05/20 10:40:21;;;;;;;;;;;19.80;79.90;;;;;;5054314;28;20040;-77
2023/05/20 10:42:47;;;;;;;4.13;2.00;;;19.70;80.30;;;;;;5040581;28;19928;-75
2023/05/20 10:45:36;;;;;;;4.90;2.50;;;19.80;79.60;;;;;;5051131;28;20040;-77
2023/05/20 10:48:02;;;;;;;4.05;2.08;;;19.80;78.70;;;;;;5041119;28;20166;-75
2023/05/20 10:50:35;;;;;;;5.95;2.20;;;19.80;80.80;;;;;;5045054;28;20121;-73
2023/05/20 10:53:05;;;;;;;3.30;1.85;;;19.90;80.30;;;;;;5042083;28;20048;-72
2023/05/20 10:55:37;;;;;;;3.97;2.10;;;20.10;79.30;;;;;;5052489;28;20053;-72
2023/05/20 10:58:04;;;;;;;5.72;2.22;;;20.20;78.40;;;;;;5040783;28;20075;-72
2023/05/20 11:00:30;;;;;;;4.90;2.58;;;20.20;78.30;;;;;;5040016;28;20091;-73
2023/05/20 11:02:56;;;;;;;9.63;2.50;;;20.20;78.60;;;;;;5039478;28;20056;-72
2023/05/20 11:05:22;;;;;;;4.78;2.20;;;20.20;77.60;;;;;;5043106;28;20522;-74
2023/05/20 11:07:48;;;;;;;4.78;2.03;;;20.20;76.80;;;;;;5040324;28;20048;-72
2023/05/20 11:10:14;;;;;;;4.88;2.10;;;20.10;76.50;;;;;;5053515;28;20045;-71
2023/05/20 11:12:40;;;;;;;4.15;2.33;;;20.20;77.70;;;;;;5039204;28;20052;-73
2023/05/20 11:15:06;;;;;;;6.63;2.30;;;20.30;77.10;;;;;;5040307;28;20128;-73
2023/05/20 11:17:32;;;;;;;4.65;1.90;;;20.20;76.30;;;;;;5039576;28;20068;-74
2023/05/20 11:19:59;;;;;;;5.88;2.30;;;20.10;76.00;;;;;;5039952;28;20049;-73
2023/05/20 11:22:25;;;;;;;6.35;2.15;;;20.10;75.40;;;;;;5041784;28;20045;-73
2023/05/20 11:24:51;;;;;;;5.05;2.17;;;20.10;74.50;;;;;;5054008;28;20053;-73
2023/05/20 11:27:18;;;;;;;3.28;1.92;;;20.20;75.40;;;;;;5039602;28;20669;-73
2023/05/20 11:29:43;;;;;;;4.18;2.20;;;20.30;75.90;;;;;;5064440;28;20070;-73
2023/05/20 11:32:09;;;;;;;4.82;1.90;;;20.40;75.20;;;;;;5043678;28;20547;-73
2023/05/20 11:34:36;;;;;;;5.90;2.15;;;20.30;72.80;;;;;;5039883;28;20075;-73
2023/05/20 11:37:10;;;;;;;4.75;1.70;;;20.10;72.40;;;;;;5039443;28;20060;-73
2023/05/20 11:39:36;;;;;;;5.30;2.10;;;20.00;73.80;;;;;;5054126;28;20047;-73
2023/05/20 11:42:02;;;;;;;2.47;1.90;;;20.20;73.70;;;;;;5045427;28;20056;-73
2023/05/20 11:44:28;;;;;;;5.20;1.90;;;20.40;74.90;;;;;;5040344;28;20045;-73
2023/05/20 11:47:00;;;;;;;8.52;1.90;;;20.50;74.10;;;;;;5045056;28;20132;-73
2023/05/20 11:49:26;;;;;;;3.00;1.90;;;20.70;74.10;;;;;;5039276;28;20855;-73
2023/05/20 11:51:51;;;;;;;3.72;1.92;;;20.80;74.40;;;;;;5038482;28;20048;-75
2023/05/20 11:54:17;;;;;;;7.72;2.58;;;20.90;73.20;;;;;;5041834;28;20094;-73
2023/05/20 11:56:44;;;;;;;4.68;2.10;;;21.00;72.50;;;;;;5039058;28;20057;-74
2023/05/20 11:59:10;;;;;;;4.50;2.10;;;21.10;72.30;;;;;;5039696;28;20049;-73
2023/05/20 12:01:39;;;;;;;4.88;2.05;;;21.10;71.00;;;;;;5044368;28;20053;-73
2023/05/20 12:04:08;;;;;;;4.43;2.10;;;21.00;69.60;;;;;;5038913;28;20764;-74
2023/05/20 12:06:36;;;;;;;4.40;2.05;;;21.00;70.50;;;;;;5038545;28;20056;-74
2023/05/20 12:09:06;;;;;;;5.07;2.03;;;21.00;72.10;;;;;;5049676;28;20077;-73
2023/05/20 12:11:35;;;;;;;6.97;2.38;;;21.10;71.60;;;;;;5047500;28;20052;-73
2023/05/20 12:14:04;;;;;;;5.10;1.98;;;21.10;70.80;;;;;;5040667;28;20049;-74
2023/05/20 12:16:32;;;;;;;2.95;1.75;;;21.20;70.30;;;;;;5043705;28;20423;-73
2023/05/20 12:18:57;;;;;;;3.20;1.77;;;21.30;69.70;;;;;;5039928;28;20080;-73
2023/05/20 12:21:23;;;;;;;7.53;2.17;;;21.40;70.30;;;;;;5039679;28;20047;-72
2023/05/20 12:23:49;;;;;;;4.90;2.03;;;21.40;71.10;;;;;;5040529;28;20056;-73
2023/05/20 12:26:15;;;;;;;4.85;2.35;;;21.60;70.40;;;;;;5051548;28;20067;-74
2023/05/20 12:28:40;;;;;;;6.45;2.00;;;21.50;68.80;;;;;;5038526;28;20037;-73
2023/05/20 12:31:06;;;;;;;4.70;1.80;;;21.40;68.60;;;;;;5047020;28;20471;-75
2023/05/20 12:33:32;;;;;;;2.85;1.98;;;21.20;68.30;;;;;;5039988;28;20049;-74
2023/05/20 12:35:58;;;;;;;5.97;2.15;;;21.20;68.90;;;;;;5039258;28;20036;-74
2023/05/20 12:38:23;;;;;;;4.72;1.95;;;21.30;69.30;;;;;;5036765;28;20076;-73
2023/05/20 12:40:49;;;;;;;5.85;2.33;;;21.40;69.30;;;;;;5037593;28;20102;-73
2023/05/20 12:43:15;;;;;;;6.20;2.45;;;21.50;69.30;;;;;;5037821;28;20040;-73